Weather at St Paul Downtown Holman Field

Public forecast

Using degrees Fahrenheit for public forecast. Weather courtesy of forecast.io.

Current aviation weather report (METAR) for St Paul Downtown Holman Field

Retrieved 2021/01/27 23:53 UTC (39 minutes ago):

KSTP 272353Z AUTO 01004KT 10SM CLR M11/M18 A3056 RMK AO2 SLP363 T11061183 11094 21106 51011

Aviation forecast (TAF) for St Paul Downtown Holman Field

Forecast is more than 12 hours old.

Retrieved 2018/02/05 00:21 UTC (3 years ago):

TAF KSTP 052320Z 0600/0624 27006KT P6SM FEW020 FM060100 30010KT P6SM FEW100 FM061600 25004KT P6SM SCT250 FM061900 21006KT P6SM BKN250 AMD NOT SKED